Time;durP1;ratioP1;P1;durP2;ratioP2;P2;SDS_P1;SDS_P2;PMS_P1;PMS_P2;Temp;Humidity;BMP_temperature;BMP_pressure;BME280_temperature;BME280_humidity;BME280_pressure;Samples;Min_cycle;Max_cycle;Signal;HPM_P1;HPM_P2
2022/04/27 00:00:17;;;;;;;7.27;6.40;;;;;;;;;;5072906;28;20408;-51
2022/04/27 00:02:43;;;;;;;7.73;6.80;;;;;;;;;;5071919;28;20438;-52
2022/04/27 00:05:09;;;;;;;7.43;6.63;;;;;;;;;;5072427;28;20820;-52
2022/04/27 00:07:35;;;;;;;7.47;6.77;;;;;;;;;;5073021;28;20919;-52
2022/04/27 00:10:01;;;;;;;9.23;7.70;;;;;;;;;;5072923;28;20420;-52
2022/04/27 00:12:27;;;;;;;7.90;6.23;;;;;;;;;;5072620;28;20958;-52
2022/04/27 00:14:53;;;;;;;6.77;6.07;;;;;;;;;;5073696;28;20891;-52
2022/04/27 00:17:19;;;;;;;11.13;6.50;;;;;;;;;;5073188;28;20927;-51
2022/04/27 00:19:48;;;;;;;8.63;7.40;;;;;;;;;;5072971;28;20971;-51
2022/04/27 00:22:14;;;;;;;10.40;6.93;;;;;;;;;;5071263;28;20447;-53
2022/04/27 00:24:40;;;;;;;8.37;7.27;;;;;;;;;;5072750;28;20467;-51
2022/04/27 00:27:06;;;;;;;10.43;6.93;;;;;;;;;;5073559;28;20405;-52
2022/04/27 00:29:33;;;;;;;11.77;6.00;;;;;;;;;;5072573;28;20411;-51
2022/04/27 00:31:59;;;;;;;11.83;6.47;;;;;;;;;;5072791;28;20419;-52
2022/04/27 00:34:25;;;;;;;9.83;6.27;;;;;;;;;;5073112;28;20761;-51
2022/04/27 00:36:51;;;;;;;9.90;6.70;;;;;;;;;;5072163;28;20455;-52
2022/04/27 00:39:17;;;;;;;12.83;7.73;;;;;;;;;;5072472;28;20459;-51
2022/04/27 00:41:59;;;;;;;8.93;6.20;;;;;;;;;;5071934;28;20950;-52
2022/04/27 00:44:32;;;;;;;7.40;6.00;;;;;;;;;;5073026;28;20467;-51
2022/04/27 00:46:58;;;;;;;7.63;6.13;;;;;;;;;;5072535;28;20904;-52
2022/04/27 00:49:25;;;;;;;6.77;5.90;;;;;;;;;;5072553;28;20496;-51
2022/04/27 00:51:51;;;;;;;9.97;7.00;;;;;;;;;;5071711;28;20490;-51
2022/04/27 00:54:18;;;;;;;8.57;6.60;;;;;;;;;;5072782;28;20411;-51
2022/04/27 00:56:45;;;;;;;7.60;6.30;;;;;;;;;;5072026;28;20449;-52
2022/04/27 00:59:11;;;;;;;10.23;6.70;;;;;;;;;;5072844;28;20895;-51
2022/04/27 01:01:37;;;;;;;11.60;7.37;;;;;;;;;;5069835;28;20461;-52
2022/04/27 01:04:05;;;;;;;8.03;6.60;;;;;;;;;;5071371;28;20487;-52
2022/04/27 01:06:31;;;;;;;9.03;6.23;;;;;;;;;;5072279;28;20451;-52
2022/04/27 01:08:57;;;;;;;6.97;6.30;;;;;;;;;;5072167;28;21278;-51
2022/04/27 01:11:23;;;;;;;7.10;5.93;;;;;;;;;;5071710;28;20402;-52
2022/04/27 01:13:49;;;;;;;9.47;7.23;;;;;;;;;;5072471;28;20837;-51
2022/04/27 01:16:15;;;;;;;10.63;6.70;;;;;;;;;;5072471;28;20401;-51
2022/04/27 01:18:42;;;;;;;18.70;7.37;;;;;;;;;;5052524;28;20413;-52
2022/04/27 01:21:08;;;;;;;11.83;7.20;;;;;;;;;;5051899;28;20415;-51
2022/04/27 01:23:34;;;;;;;12.33;7.10;;;;;;;;;;5071201;28;20544;-51
2022/04/27 01:26:05;;;;;;;8.13;6.60;;;;;;;;;;5072535;28;20431;-52
2022/04/27 01:28:31;;;;;;;12.10;7.10;;;;;;;;;;5072111;28;20414;-52
2022/04/27 01:30:59;;;;;;;7.33;6.50;;;;;;;;;;5071324;28;20792;-51
2022/04/27 01:33:25;;;;;;;8.83;6.30;;;;;;;;;;5072278;28;20473;-52
2022/04/27 01:35:51;;;;;;;9.23;7.10;;;;;;;;;;5071942;28;20505;-52
2022/04/27 01:38:18;;;;;;;19.23;7.83;;;;;;;;;;5072173;28;20448;-52
2022/04/27 01:40:44;;;;;;;9.73;6.73;;;;;;;;;;5071859;28;20470;-51
2022/04/27 01:43:10;;;;;;;9.77;6.30;;;;;;;;;;5071923;28;20510;-52
2022/04/27 01:45:36;;;;;;;14.10;7.70;;;;;;;;;;5071662;28;20548;-52
2022/04/27 01:48:03;;;;;;;8.90;7.27;;;;;;;;;;5072173;28;20734;-52
2022/04/27 01:50:29;;;;;;;9.97;6.70;;;;;;;;;;5071756;28;20497;-51
2022/04/27 01:55:40;;;;;;;8.87;6.73;;;;;;;;;;5071810;28;20957;-52
2022/04/27 01:58:06;;;;;;;8.37;6.87;;;;;;;;;;5072022;28;20450;-51
2022/04/27 02:00:33;;;;;;;9.23;6.67;;;;;;;;;;5071633;28;20410;-52
2022/04/27 02:02:59;;;;;;;18.33;6.93;;;;;;;;;;5071311;28;20432;-53
2022/04/27 02:05:26;;;;;;;9.33;6.87;;;;;;;;;;5071519;28;20465;-51
2022/04/27 02:07:52;;;;;;;10.10;6.83;;;;;;;;;;5072210;28;20752;-51
2022/04/27 02:10:18;;;;;;;8.80;7.10;;;;;;;;;;5071495;28;20414;-51
2022/04/27 02:12:44;;;;;;;8.67;7.27;;;;;;;;;;5071152;28;20467;-52
2022/04/27 02:15:10;;;;;;;6.63;5.93;;;;;;;;;;5071589;28;20409;-51
2022/04/27 02:17:36;;;;;;;8.00;7.20;;;;;;;;;;5071260;28;20770;-51
2022/04/27 02:20:02;;;;;;;7.83;6.83;;;;;;;;;;5070935;28;20415;-51
2022/04/27 02:22:29;;;;;;;11.33;6.37;;;;;;;;;;5070957;28;20443;-51
2022/04/27 02:24:56;;;;;;;9.87;7.60;;;;;;;;;;5071290;28;20457;-52
2022/04/27 02:27:22;;;;;;;11.83;7.20;;;;;;;;;;5071330;28;20410;-51
2022/04/27 02:29:52;;;;;;;13.30;7.50;;;;;;;;;;5071196;28;20492;-52
2022/04/27 02:32:18;;;;;;;7.87;7.07;;;;;;;;;;5070758;28;20829;-51
2022/04/27 02:34:45;;;;;;;7.80;7.00;;;;;;;;;;5071640;28;20775;-52
2022/04/27 02:37:13;;;;;;;8.47;7.10;;;;;;;;;;5071289;28;20765;-51
2022/04/27 02:39:40;;;;;;;8.07;6.83;;;;;;;;;;5071246;28;20454;-51
2022/04/27 02:42:07;;;;;;;10.10;7.10;;;;;;;;;;5071014;28;20433;-51
2022/04/27 02:44:33;;;;;;;7.80;7.00;;;;;;;;;;5071288;28;20987;-51
2022/04/27 02:46:59;;;;;;;9.97;7.60;;;;;;;;;;5071462;28;20401;-51
2022/04/27 02:52:10;;;;;;;9.30;6.90;;;;;;;;;;5070601;28;20435;-52
2022/04/27 02:54:39;;;;;;;10.70;7.40;;;;;;;;;;5071231;28;20416;-52
2022/04/27 02:57:05;;;;;;;10.97;7.00;;;;;;;;;;5071521;28;20423;-51
2022/04/27 02:59:31;;;;;;;13.07;7.70;;;;;;;;;;5071081;28;20416;-51
2022/04/27 03:01:57;;;;;;;9.00;7.10;;;;;;;;;;5070733;28;20495;-51
2022/04/27 03:04:23;;;;;;;15.17;7.70;;;;;;;;;;5070980;28;20542;-52
2022/04/27 03:06:48;;;;;;;11.30;7.10;;;;;;;;;;5071379;28;20397;-51
2022/04/27 03:09:14;;;;;;;9.40;7.53;;;;;;;;;;5070953;28;20462;-51
2022/04/27 03:11:40;;;;;;;8.27;7.40;;;;;;;;;;5070572;28;20421;-52
2022/04/27 03:14:06;;;;;;;10.20;7.73;;;;;;;;;;5071081;28;20508;-52
2022/04/27 03:16:32;;;;;;;10.47;7.50;;;;;;;;;;5071242;28;20413;-51
2022/04/27 03:18:59;;;;;;;11.10;8.63;;;;;;;;;;5070867;28;20432;-51
2022/04/27 03:21:26;;;;;;;10.10;8.10;;;;;;;;;;5070434;28;20436;-52
2022/04/27 03:23:52;;;;;;;10.10;7.60;;;;;;;;;;5070926;28;20455;-52
2022/04/27 03:26:18;;;;;;;8.73;7.63;;;;;;;;;;5071193;28;20408;-52
2022/04/27 03:28:44;;;;;;;9.17;8.13;;;;;;;;;;5070926;28;20413;-52
2022/04/27 03:31:10;;;;;;;10.90;8.60;;;;;;;;;;5073467;28;20925;-51
2022/04/27 03:33:36;;;;;;;9.43;7.43;;;;;;;;;;5074089;28;20416;-52
2022/04/27 03:36:02;;;;;;;11.87;8.80;;;;;;;;;;5074339;28;20892;-52
2022/04/27 03:38:28;;;;;;;8.63;7.63;;;;;;;;;;5073680;28;20414;-52
2022/04/27 03:40:54;;;;;;;11.43;8.50;;;;;;;;;;5073631;28;20773;-51
2022/04/27 03:43:20;;;;;;;15.17;8.70;;;;;;;;;;5074163;28;20520;-52
2022/04/27 03:48:50;;;;;;;9.80;7.20;;;;;;;;;;5074231;28;20367;-52
2022/04/27 03:51:16;;;;;;;11.10;8.20;;;;;;;;;;5072341;28;20531;-51
2022/04/27 03:53:42;;;;;;;11.00;8.50;;;;;;;;;;5074009;28;20456;-51
2022/04/27 03:56:08;;;;;;;10.80;8.70;;;;;;;;;;5072826;28;20413;-51
2022/04/27 03:58:34;;;;;;;12.50;8.23;;;;;;;;;;5072848;28;20817;-50
2022/04/27 04:01:00;;;;;;;9.70;7.90;;;;;;;;;;5072467;28;20422;-51
2022/04/27 04:03:26;;;;;;;14.77;8.57;;;;;;;;;;5073160;28;20430;-51
2022/04/27 04:05:53;;;;;;;12.77;8.33;;;;;;;;;;5073422;28;20421;-52
2022/04/27 04:08:19;;;;;;;10.57;7.90;;;;;;;;;;5073315;28;21813;-51
2022/04/27 04:10:46;;;;;;;11.60;9.37;;;;;;;;;;5072626;28;20758;-51
2022/04/27 04:13:12;;;;;;;10.37;8.53;;;;;;;;;;5073476;28;20429;-51
2022/04/27 04:15:38;;;;;;;9.90;8.87;;;;;;;;;;5073765;28;20507;-52
2022/04/27 04:18:04;;;;;;;11.30;9.13;;;;;;;;;;5073781;28;20429;-52
2022/04/27 04:20:30;;;;;;;13.83;9.70;;;;;;;;;;5073257;28;20868;-51
2022/04/27 04:22:57;;;;;;;11.63;9.27;;;;;;;;;;5073096;28;20456;-51
2022/04/27 04:30:51;;;;;;;12.30;9.20;;;;;;;;;;5072556;28;20596;-52
2022/04/27 04:33:17;;;;;;;11.60;9.60;;;;;;;;;;5072440;28;20936;-51
2022/04/27 04:35:43;;;;;;;13.50;9.17;;;;;;;;;;5073912;28;20431;-52
2022/04/27 04:38:09;;;;;;;10.40;9.20;;;;;;;;;;5072133;28;21023;-51
2022/04/27 04:40:35;;;;;;;14.13;9.68;;;;;;;;;;5072885;28;20402;-52
2022/04/27 04:43:01;;;;;;;12.13;10.60;;;;;;;;;;5071984;28;20199;-51
2022/04/27 04:45:27;;;;;;;14.60;10.32;;;;;;;;;;5072530;28;20813;-53
2022/04/27 04:47:53;;;;;;;12.93;8.90;;;;;;;;;;5072581;28;20265;-52
2022/04/27 04:50:20;;;;;;;13.03;9.40;;;;;;;;;;5072591;28;20486;-51
2022/04/27 04:52:46;;;;;;;16.33;9.80;;;;;;;;;;5070960;28;20544;-51
2022/04/27 04:55:12;;;;;;;15.33;9.63;;;;;;;;;;5072158;28;20194;-50
2022/04/27 04:57:38;;;;;;;9.03;7.83;;;;;;;;;;5072206;28;20890;-52
2022/04/27 05:00:05;;;;;;;10.10;8.90;;;;;;;;;;5071203;28;20412;-53
2022/04/27 05:02:31;;;;;;;11.48;9.32;;;;;;;;;;5070855;28;20539;-51
2022/04/27 05:04:58;;;;;;;12.77;8.87;;;;;;;;;;5071261;28;20270;-51
2022/04/27 05:07:24;;;;;;;9.52;8.52;;;;;;;;;;5072672;28;20408;-51
2022/04/27 05:09:49;;;;;;;10.30;9.07;;;;;;;;;;5072722;28;20235;-51
2022/04/27 05:12:15;;;;;;;12.27;9.60;;;;;;;;;;5070788;28;20425;-49
2022/04/27 05:14:41;;;;;;;11.80;8.93;;;;;;;;;;5072344;28;20439;-50
2022/04/27 05:17:07;;;;;;;15.50;10.80;;;;;;;;;;5072731;28;20412;-52
2022/04/27 05:19:33;;;;;;;17.10;10.10;;;;;;;;;;5072351;28;20798;-49
2022/04/27 05:21:59;;;;;;;13.02;9.77;;;;;;;;;;5071436;28;20437;-49
2022/04/27 05:24:25;;;;;;;15.70;9.93;;;;;;;;;;5071307;28;20191;-49
2022/04/27 05:26:51;;;;;;;26.07;12.53;;;;;;;;;;5072398;28;20443;-49
2022/04/27 05:32:04;;;;;;;13.83;10.33;;;;;;;;;;5068619;28;20514;-50
2022/04/27 05:34:30;;;;;;;12.43;10.00;;;;;;;;;;5072327;28;20415;-50
2022/04/27 05:37:00;;;;;;;12.40;9.87;;;;;;;;;;5072219;28;20413;-50
2022/04/27 05:39:26;;;;;;;14.83;10.37;;;;;;;;;;5072292;28;20410;-49
2022/04/27 05:41:53;;;;;;;23.63;11.67;;;;;;;;;;5071523;28;20866;-49
2022/04/27 05:44:22;;;;;;;11.50;9.90;;;;;;;;;;5070909;28;20507;-49
2022/04/27 05:46:52;;;;;;;14.60;10.87;;;;;;;;;;5071924;28;20418;-49
2022/04/27 05:49:18;;;;;;;17.50;11.20;;;;;;;;;;5071402;28;20403;-51
2022/04/27 05:51:44;;;;;;;14.20;9.70;;;;;;;;;;5069689;28;20878;-51
2022/04/27 05:54:10;;;;;;;13.40;9.80;;;;;;;;;;5071275;28;20507;-52
2022/04/27 05:56:36;;;;;;;13.10;11.03;;;;;;;;;;5071503;28;20489;-51
2022/04/27 05:59:02;;;;;;;14.03;10.50;;;;;;;;;;5071152;28;20471;-52
2022/04/27 06:01:29;;;;;;;15.47;11.37;;;;;;;;;;5070770;28;21199;-51
2022/04/27 06:03:55;;;;;;;16.67;10.50;;;;;;;;;;5070895;28;20470;-52
2022/04/27 06:06:21;;;;;;;16.83;10.67;;;;;;;;;;5071236;28;20495;-52
2022/04/27 06:08:48;;;;;;;17.20;10.23;;;;;;;;;;5070822;28;20474;-52
2022/04/27 06:11:14;;;;;;;14.03;11.10;;;;;;;;;;5070626;28;20941;-51
2022/04/27 06:13:40;;;;;;;15.27;10.07;;;;;;;;;;5064428;28;20414;-52
2022/04/27 06:16:06;;;;;;;14.27;10.13;;;;;;;;;;5069912;28;20458;-52
2022/04/27 06:18:32;;;;;;;17.23;10.77;;;;;;;;;;5069747;28;20423;-50
2022/04/27 06:20:58;;;;;;;11.90;10.30;;;;;;;;;;5069168;28;20458;-52
2022/04/27 06:23:24;;;;;;;13.73;10.40;;;;;;;;;;5070632;28;20436;-52
2022/04/27 06:25:50;;;;;;;11.80;10.47;;;;;;;;;;5071384;28;20454;-50
2022/04/27 06:28:20;;;;;;;14.73;11.00;;;;;;;;;;5071397;28;20425;-51
2022/04/27 06:30:46;;;;;;;15.57;12.00;;;;;;;;;;5071159;28;20491;-52
2022/04/27 06:33:13;;;;;;;12.93;9.77;;;;;;;;;;5071300;28;20515;-51
2022/04/27 06:35:41;;;;;;;14.60;10.83;;;;;;;;;;5071643;28;20389;-50
2022/04/27 06:38:07;;;;;;;11.33;10.17;;;;;;;;;;5071538;28;20419;-51
2022/04/27 06:40:33;;;;;;;15.87;10.73;;;;;;;;;;5071503;28;20833;-49
2022/04/27 06:42:59;;;;;;;19.33;10.87;;;;;;;;;;5071042;28;20441;-49
2022/04/27 06:45:27;;;;;;;17.07;10.50;;;;;;;;;;5071410;28;20459;-49
2022/04/27 06:47:54;;;;;;;15.70;11.03;;;;;;;;;;5071009;28;20417;-49
2022/04/27 06:50:21;;;;;;;15.83;11.07;;;;;;;;;;5071490;28;20401;-52
2022/04/27 06:52:47;;;;;;;12.93;10.43;;;;;;;;;;5070635;28;20443;-50
2022/04/27 06:55:13;;;;;;;15.70;12.30;;;;;;;;;;5071469;28;20408;-51
2022/04/27 06:57:39;;;;;;;15.47;10.23;;;;;;;;;;5071175;28;20418;-49
2022/04/27 07:00:08;;;;;;;19.00;10.37;;;;;;;;;;5071323;28;20413;-50
2022/04/27 07:02:34;;;;;;;10.40;8.87;;;;;;;;;;5070799;28;20478;-50
2022/04/27 07:05:01;;;;;;;10.53;9.37;;;;;;;;;;5075127;28;20848;-50
2022/04/27 07:07:27;;;;;;;11.77;9.20;;;;;;;;;;5075148;28;20432;-49
2022/04/27 07:09:53;;;;;;;13.47;9.23;;;;;;;;;;5074974;28;20895;-50
2022/04/27 07:12:19;;;;;;;10.80;9.40;;;;;;;;;;5074507;28;20420;-49
2022/04/27 07:14:46;;;;;;;12.30;8.90;;;;;;;;;;5074753;28;20444;-49
2022/04/27 07:17:12;;;;;;;16.40;9.10;;;;;;;;;;5074856;28;20420;-53
2022/04/27 07:19:38;;;;;;;14.33;9.17;;;;;;;;;;5074517;28;20420;-49
2022/04/27 07:22:05;;;;;;;9.30;8.17;;;;;;;;;;5073775;28;20806;-49
2022/04/27 07:24:31;;;;;;;11.83;7.97;;;;;;;;;;5074052;28;20583;-52
2022/04/27 07:26:57;;;;;;;8.13;7.30;;;;;;;;;;5072813;28;20435;-54
2022/04/27 07:29:23;;;;;;;9.83;8.83;;;;;;;;;;5072610;28;20420;-49
2022/04/27 07:31:50;;;;;;;7.93;6.83;;;;;;;;;;5072618;28;20421;-52
2022/04/27 07:34:16;;;;;;;12.93;7.30;;;;;;;;;;5073898;28;20414;-49
2022/04/27 07:36:42;;;;;;;7.80;6.60;;;;;;;;;;5074685;28;20439;-49
2022/04/27 07:39:08;;;;;;;10.63;6.80;;;;;;;;;;5074354;28;20420;-49
2022/04/27 07:41:34;;;;;;;8.50;7.40;;;;;;;;;;5073685;28;20418;-50
2022/04/27 07:44:00;;;;;;;10.17;5.93;;;;;;;;;;5074152;28;20477;-50
2022/04/27 07:46:26;;;;;;;8.47;6.77;;;;;;;;;;5074452;28;20409;-49
2022/04/27 07:48:52;;;;;;;7.97;6.30;;;;;;;;;;5074213;28;20402;-50
2022/04/27 07:51:18;;;;;;;8.67;5.70;;;;;;;;;;5072935;28;20942;-51
2022/04/27 07:53:44;;;;;;;7.83;6.50;;;;;;;;;;5074054;28;20414;-53
2022/04/27 07:56:11;;;;;;;8.80;6.40;;;;;;;;;;5074335;28;20426;-54
2022/04/27 07:58:37;;;;;;;7.00;5.63;;;;;;;;;;5073900;28;20488;-53
2022/04/27 08:01:03;;;;;;;9.00;6.43;;;;;;;;;;5073532;28;20485;-54
2022/04/27 08:03:29;;;;;;;10.77;6.87;;;;;;;;;;5073924;28;20503;-54
2022/04/27 08:05:55;;;;;;;8.23;6.80;;;;;;;;;;5074145;28;20397;-55
2022/04/27 08:08:21;;;;;;;8.37;7.17;;;;;;;;;;5073804;28;20412;-54
2022/04/27 08:10:47;;;;;;;8.10;6.57;;;;;;;;;;5072417;28;20400;-55
2022/04/27 08:13:15;;;;;;;7.43;6.70;;;;;;;;;;5073587;28;20474;-55
2022/04/27 08:15:42;;;;;;;9.20;6.40;;;;;;;;;;5073041;28;20413;-52
2022/04/27 08:18:08;;;;;;;9.43;7.00;;;;;;;;;;5073967;28;20414;-54
2022/04/27 08:23:31;;;;;;;9.07;6.97;;;;;;;;;;5073747;28;20804;-50
2022/04/27 08:25:59;;;;;;;9.00;7.47;;;;;;;;;;5073743;28;20429;-51
2022/04/27 08:28:25;;;;;;;7.67;6.70;;;;;;;;;;5073607;28;20396;-50
2022/04/27 08:30:51;;;;;;;7.63;6.40;;;;;;;;;;5073091;28;20891;-52
2022/04/27 08:33:19;;;;;;;9.33;8.03;;;;;;;;;;5073214;28;20478;-52
2022/04/27 08:35:45;;;;;;;9.30;6.10;;;;;;;;;;5073503;28;20388;-52
2022/04/27 08:38:11;;;;;;;5.83;5.33;;;;;;;;;;5073482;28;20398;-53
2022/04/27 08:40:38;;;;;;;9.57;7.10;;;;;;;;;;5073271;28;20400;-52
2022/04/27 08:43:05;;;;;;;10.27;6.90;;;;;;;;;;5070981;28;20883;-52
2022/04/27 08:45:32;;;;;;;9.37;7.13;;;;;;;;;;5073275;28;20806;-52
2022/04/27 08:47:59;;;;;;;8.33;7.40;;;;;;;;;;5073228;28;20405;-52
2022/04/27 08:50:26;;;;;;;6.60;6.00;;;;;;;;;;5073071;28;20428;-52
2022/04/27 08:52:52;;;;;;;8.73;5.30;;;;;;;;;;5072154;28;20531;-52
2022/04/27 08:55:19;;;;;;;6.50;5.83;;;;;;;;;;5073106;28;20412;-53
2022/04/27 08:57:46;;;;;;;8.30;5.70;;;;;;;;;;5073011;28;20888;-53
2022/04/27 09:00:13;;;;;;;7.23;5.83;;;;;;;;;;5072875;28;20752;-52
2022/04/27 09:02:39;;;;;;;7.13;6.20;;;;;;;;;;5066099;28;20441;-52
2022/04/27 09:05:12;;;;;;;8.10;5.67;;;;;;;;;;5072909;28;20983;-53
2022/04/27 09:07:38;;;;;;;6.47;5.70;;;;;;;;;;5072731;28;20877;-53
2022/04/27 09:10:05;;;;;;;9.07;6.77;;;;;;;;;;5072709;28;20770;-53
2022/04/27 09:12:31;;;;;;;6.80;6.10;;;;;;;;;;5071995;28;20417;-51
2022/04/27 09:15:04;;;;;;;6.67;5.97;;;;;;;;;;5072736;28;20409;-51
2022/04/27 09:23:03;;;;;;;7.80;5.67;;;;;;;;;;5072158;28;20953;-51
2022/04/27 09:25:36;;;;;;;6.77;6.17;;;;;;;;;;5072454;28;20496;-52
2022/04/27 09:28:03;;;;;;;6.67;5.87;;;;;;;;;;5072454;28;20407;-51
2022/04/27 09:30:30;;;;;;;8.00;5.43;;;;;;;;;;5072231;28;20393;-54
2022/04/27 09:32:57;;;;;;;5.77;5.20;;;;;;;;;;5071877;28;20419;-50
2022/04/27 09:35:34;;;;;;;7.63;5.63;;;;;;;;;;5072365;28;20549;-53
2022/04/27 09:38:15;;;;;;;10.30;7.43;;;;;;;;;;5072296;28;20848;-52
2022/04/27 09:40:45;;;;;;;6.23;5.70;;;;;;;;;;5072119;28;20454;-51
2022/04/27 09:43:15;;;;;;;12.73;5.50;;;;;;;;;;5072042;28;20761;-51
2022/04/27 09:45:42;;;;;;;6.73;6.03;;;;;;;;;;5071918;28;20928;-50
2022/04/27 09:48:11;;;;;;;7.43;6.50;;;;;;;;;;5071711;28;20419;-55
2022/04/27 09:50:58;;;;;;;10.83;7.97;;;;;;;;;;5071884;28;20439;-54
2022/04/27 09:53:25;;;;;;;9.43;7.50;;;;;;;;;;5071546;28;20459;-54
2022/04/27 09:55:54;;;;;;;7.93;7.23;;;;;;;;;;5070717;28;20436;-54
2022/04/27 09:58:20;;;;;;;10.00;7.17;;;;;;;;;;5070553;28;20839;-53
2022/04/27 10:00:48;;;;;;;8.37;7.57;;;;;;;;;;5071437;28;20396;-52
2022/04/27 10:03:15;;;;;;;8.43;7.20;;;;;;;;;;5070906;28;20447;-53
2022/04/27 10:05:41;;;;;;;10.60;8.63;;;;;;;;;;5071510;28;20951;-52
2022/04/27 10:08:08;;;;;;;8.53;7.70;;;;;;;;;;5070480;28;20404;-53
2022/04/27 10:10:35;;;;;;;9.53;7.90;;;;;;;;;;5070984;28;20392;-52
2022/04/27 10:13:02;;;;;;;11.10;7.10;;;;;;;;;;5070514;28;20497;-53
2022/04/27 10:15:28;;;;;;;8.60;7.80;;;;;;;;;;5071526;28;20427;-53
2022/04/27 10:17:55;;;;;;;11.33;8.70;;;;;;;;;;5071786;28;20488;-52
2022/04/27 10:20:32;;;;;;;10.67;7.67;;;;;;;;;;5071227;28;20418;-53
2022/04/27 10:23:18;;;;;;;8.83;7.93;;;;;;;;;;5069731;28;20437;-53
2022/04/27 10:26:03;;;;;;;10.33;7.53;;;;;;;;;;5071115;28;21010;-52
2022/04/27 10:28:30;;;;;;;10.10;8.67;;;;;;;;;;5071398;28;20511;-53
2022/04/27 10:30:56;;;;;;;11.00;7.10;;;;;;;;;;5070970;28;20405;-53
2022/04/27 10:33:41;;;;;;;38.97;8.80;;;;;;;;;;5071200;28;20490;-53
2022/04/27 10:36:23;;;;;;;11.10;7.57;;;;;;;;;;5071008;28;20408;-53
2022/04/27 10:39:08;;;;;;;8.10;7.30;;;;;;;;;;5073205;28;20409;-54
2022/04/27 10:41:34;;;;;;;9.10;7.93;;;;;;;;;;5074554;28;20514;-55
2022/04/27 10:43:59;;;;;;;8.73;7.83;;;;;;;;;;5075465;28;20863;-54
2022/04/27 10:46:44;;;;;;;7.80;6.50;;;;;;;;;;5075466;28;20417;-55
2022/04/27 10:49:22;;;;;;;9.03;7.73;;;;;;;;;;5075188;28;20420;-54
2022/04/27 10:52:07;;;;;;;8.27;7.47;;;;;;;;;;5074769;28;20741;-51
2022/04/27 10:54:34;;;;;;;9.83;6.97;;;;;;;;;;5075278;28;20423;-52
2022/04/27 10:57:16;;;;;;;7.80;7.10;;;;;;;;;;5075260;28;20419;-51
2022/04/27 10:59:48;;;;;;;7.67;6.97;;;;;;;;;;5073815;28;20926;-53
2022/04/27 11:02:33;;;;;;;9.00;6.83;;;;;;;;;;5074301;28;20439;-53
2022/04/27 11:04:59;;;;;;;8.07;7.37;;;;;;;;;;5075016;28;20478;-53
2022/04/27 11:07:34;;;;;;;10.00;7.27;;;;;;;;;;5074573;28;20962;-53
2022/04/27 11:10:12;;;;;;;8.70;7.70;;;;;;;;;;5074710;28;20461;-55
2022/04/27 11:12:39;;;;;;;7.50;6.80;;;;;;;;;;5074293;28;21051;-53
2022/04/27 11:15:11;;;;;;;9.00;7.43;;;;;;;;;;5075124;28;20396;-52
2022/04/27 11:17:40;;;;;;;6.37;5.80;;;;;;;;;;5084522;28;20416;-52
2022/04/27 11:20:07;;;;;;;6.43;5.93;;;;;;;;;;5074808;28;20478;-51
2022/04/27 11:22:38;;;;;;;8.83;6.00;;;;;;;;;;5074225;28;20422;-52
2022/04/27 11:25:07;;;;;;;9.03;6.83;;;;;;;;;;5074495;28;20496;-52
2022/04/27 11:27:34;;;;;;;8.00;7.00;;;;;;;;;;5075625;28;20412;-54
2022/04/27 11:30:01;;;;;;;7.63;6.80;;;;;;;;;;5074716;28;20446;-52
2022/04/27 11:32:30;;;;;;;10.07;7.10;;;;;;;;;;5073841;28;20926;-51
2022/04/27 11:34:56;;;;;;;7.77;6.90;;;;;;;;;;5074556;28;21042;-51
2022/04/27 11:37:22;;;;;;;11.67;6.63;;;;;;;;;;5083702;28;20422;-54
2022/04/27 11:39:49;;;;;;;9.20;7.27;;;;;;;;;;5073904;28;20463;-53
2022/04/27 11:42:16;;;;;;;9.10;7.40;;;;;;;;;;5071390;28;20593;-53
2022/04/27 11:44:43;;;;;;;9.63;7.40;;;;;;;;;;5074385;28;20512;-53
2022/04/27 11:47:26;;;;;;;7.10;6.40;;;;;;;;;;5073203;28;20420;-53
2022/04/27 11:49:59;;;;;;;7.90;6.50;;;;;;;;;;5071522;28;20477;-53
2022/04/27 11:52:25;;;;;;;9.57;7.70;;;;;;;;;;5072506;28;20803;-53
2022/04/27 11:54:51;;;;;;;7.50;6.70;;;;;;;;;;5073044;28;20904;-54
2022/04/27 11:57:21;;;;;;;8.33;7.43;;;;;;;;;;5073437;28;20822;-53
2022/04/27 11:59:48;;;;;;;6.90;6.30;;;;;;;;;;5072018;28;20912;-54
2022/04/27 12:02:14;;;;;;;7.00;6.30;;;;;;;;;;5073125;28;20440;-53
2022/04/27 12:04:43;;;;;;;11.73;5.83;;;;;;;;;;5073660;28;20447;-54
2022/04/27 12:07:13;;;;;;;6.80;6.20;;;;;;;;;;5073242;28;20849;-54
2022/04/27 12:09:39;;;;;;;8.33;7.50;;;;;;;;;;5073558;28;20987;-53
2022/04/27 12:12:06;;;;;;;8.13;7.40;;;;;;;;;;5073039;28;20424;-53
2022/04/27 12:14:32;;;;;;;7.93;6.73;;;;;;;;;;5073358;28;20423;-53
2022/04/27 12:16:58;;;;;;;8.03;7.20;;;;;;;;;;5073619;28;20416;-53
2022/04/27 12:19:28;;;;;;;7.73;7.13;;;;;;;;;;5073810;28;20480;-53
2022/04/27 12:22:11;;;;;;;8.47;7.63;;;;;;;;;;5072752;28;20442;-53
2022/04/27 12:24:43;;;;;;;8.80;7.93;;;;;;;;;;5073212;28;20456;-53
2022/04/27 12:27:23;;;;;;;7.80;6.83;;;;;;;;;;5073069;28;20825;-53
2022/04/27 12:29:49;;;;;;;8.33;7.53;;;;;;;;;;5066898;28;20470;-53
2022/04/27 12:32:15;;;;;;;8.77;8.07;;;;;;;;;;5071749;28;21015;-53
2022/04/27 12:37:31;;;;;;;7.63;7.03;;;;;;;;;;5071837;28;21084;-53
2022/04/27 12:39:57;;;;;;;7.90;7.10;;;;;;;;;;5072109;28;20404;-53
2022/04/27 12:42:23;;;;;;;7.63;6.70;;;;;;;;;;5072393;28;20424;-53
2022/04/27 12:44:49;;;;;;;7.00;6.40;;;;;;;;;;5072928;28;20456;-53
2022/04/27 12:47:16;;;;;;;9.60;5.97;;;;;;;;;;5073152;28;20786;-53
2022/04/27 12:49:44;;;;;;;8.10;6.90;;;;;;;;;;5072475;28;20413;-53
2022/04/27 12:52:21;;;;;;;7.90;7.20;;;;;;;;;;5072108;28;20657;-52
2022/04/27 12:54:48;;;;;;;8.50;7.73;;;;;;;;;;5072570;28;20419;-53
2022/04/27 12:57:15;;;;;;;9.20;8.30;;;;;;;;;;5080695;28;20420;-53
2022/04/27 12:59:53;;;;;;;10.70;9.63;;;;;;;;;;5072206;28;20881;-53
2022/04/27 13:02:19;;;;;;;9.40;8.50;;;;;;;;;;5071440;28;20444;-53
2022/04/27 13:04:46;;;;;;;10.90;8.43;;;;;;;;;;5073467;28;20463;-53
2022/04/27 13:07:12;;;;;;;11.63;8.80;;;;;;;;;;5071896;28;20419;-52
2022/04/27 13:12:28;;;;;;;9.63;8.80;;;;;;;;;;5072960;28;20429;-54
2022/04/27 13:14:54;;;;;;;10.97;8.27;;;;;;;;;;5081760;28;20421;-54
2022/04/27 13:17:20;;;;;;;8.93;8.13;;;;;;;;;;5075197;28;20415;-54
2022/04/27 13:19:46;;;;;;;8.80;7.90;;;;;;;;;;5072209;28;20439;-53
2022/04/27 13:22:13;;;;;;;9.07;8.00;;;;;;;;;;5071357;28;20436;-54
2022/04/27 13:24:39;;;;;;;8.10;7.47;;;;;;;;;;5071689;28;20872;-54
2022/04/27 13:27:05;;;;;;;9.27;8.37;;;;;;;;;;5071684;28;20400;-53
2022/04/27 13:29:31;;;;;;;10.30;8.20;;;;;;;;;;5072263;28;20804;-53
2022/04/27 13:31:59;;;;;;;9.73;7.60;;;;;;;;;;5070970;28;20920;-53
2022/04/27 13:34:25;;;;;;;7.90;7.20;;;;;;;;;;5071376;28;20577;-53
2022/04/27 13:36:51;;;;;;;7.40;6.80;;;;;;;;;;5071665;28;20451;-53
2022/04/27 13:39:19;;;;;;;7.70;7.00;;;;;;;;;;5071683;28;20423;-53
2022/04/27 13:41:45;;;;;;;7.97;7.23;;;;;;;;;;5071090;28;20440;-53
2022/04/27 13:44:11;;;;;;;8.03;7.43;;;;;;;;;;5071831;28;20508;-53
2022/04/27 13:46:38;;;;;;;9.50;7.90;;;;;;;;;;5080964;28;20421;-53
2022/04/27 13:49:04;;;;;;;8.13;7.33;;;;;;;;;;5071966;28;20412;-54
2022/04/27 13:51:30;;;;;;;9.33;8.50;;;;;;;;;;5072282;28;20434;-54
2022/04/27 13:53:58;;;;;;;8.87;7.77;;;;;;;;;;5071914;28;20428;-53
2022/04/27 13:56:24;;;;;;;8.37;7.57;;;;;;;;;;5071807;28;20413;-53
2022/04/27 13:58:50;;;;;;;8.03;7.33;;;;;;;;;;5071759;28;20421;-53
2022/04/27 14:01:17;;;;;;;8.00;7.40;;;;;;;;;;5070742;28;20417;-54
2022/04/27 14:03:43;;;;;;;8.80;7.90;;;;;;;;;;5071343;28;20408;-53
2022/04/27 14:06:09;;;;;;;9.73;7.37;;;;;;;;;;5071281;28;20993;-53
2022/04/27 14:08:36;;;;;;;7.73;7.03;;;;;;;;;;5073593;28;21217;-53
2022/04/27 14:11:02;;;;;;;9.33;7.73;;;;;;;;;;5070361;28;20482;-54
2022/04/27 14:13:28;;;;;;;7.70;7.00;;;;;;;;;;5070566;28;20460;-53
2022/04/27 14:18:38;;;;;;;8.77;7.90;;;;;;;;;;5071974;28;20426;-52
2022/04/27 14:21:06;;;;;;;9.10;8.13;;;;;;;;;;5070994;28;20518;-53
2022/04/27 14:23:32;;;;;;;8.50;7.30;;;;;;;;;;5071205;28;20442;-53
2022/04/27 14:25:58;;;;;;;9.67;8.77;;;;;;;;;;5071423;28;20448;-52
2022/04/27 14:28:24;;;;;;;8.47;7.67;;;;;;;;;;5071453;28;20983;-54
2022/04/27 14:30:51;;;;;;;8.53;7.63;;;;;;;;;;5070978;28;20537;-53
2022/04/27 14:33:18;;;;;;;8.03;7.33;;;;;;;;;;5069687;28;20569;-53
2022/04/27 14:35:45;;;;;;;9.73;8.73;;;;;;;;;;5071348;28;20549;-54
2022/04/27 14:38:11;;;;;;;9.70;7.93;;;;;;;;;;5071180;28;20454;-53
2022/04/27 14:40:37;;;;;;;10.87;9.23;;;;;;;;;;5071505;28;20888;-53
2022/04/27 14:43:04;;;;;;;8.33;7.60;;;;;;;;;;5070423;28;20442;-53
2022/04/27 14:45:31;;;;;;;10.67;9.70;;;;;;;;;;5074774;28;20452;-54
2022/04/27 14:47:57;;;;;;;7.93;7.10;;;;;;;;;;5071330;28;20411;-53
2022/04/27 14:50:23;;;;;;;9.10;6.77;;;;;;;;;;5071271;28;20409;-54
2022/04/27 14:52:50;;;;;;;7.80;7.00;;;;;;;;;;5070099;28;20829;-53
2022/04/27 14:55:16;;;;;;;8.10;7.30;;;;;;;;;;5070893;28;20419;-54
2022/04/27 14:57:42;;;;;;;10.20;9.17;;;;;;;;;;5070699;28;20417;-54
2022/04/27 15:00:08;;;;;;;9.10;7.10;;;;;;;;;;5071176;28;20424;-54
2022/04/27 15:02:35;;;;;;;10.23;7.70;;;;;;;;;;5070468;28;20446;-53
2022/04/27 15:05:01;;;;;;;9.23;7.97;;;;;;;;;;5070945;28;20460;-53
2022/04/27 15:07:27;;;;;;;11.50;9.23;;;;;;;;;;5069495;28;20915;-54
2022/04/27 15:09:53;;;;;;;10.50;9.40;;;;;;;;;;5071076;28;20419;-54